sensor_id;sensor_type;location;lat;lon;timestamp;P1;durP1;ratioP1;P2;durP2;ratioP2
9034;SDS011;4552;43.422;24.592;2023-09-30T00:59:43;5.80;;;3.77;;
9034;SDS011;4552;43.422;24.592;2023-09-30T01:02:11;5.77;;;4.10;;
9034;SDS011;4552;43.422;24.592;2023-09-30T01:04:37;7.80;;;3.73;;
9034;SDS011;4552;43.422;24.592;2023-09-30T01:07:05;4.50;;;3.73;;
9034;SDS011;4552;43.422;24.592;2023-09-30T01:16:23;6.30;;;3.63;;
9034;SDS011;4552;43.422;24.592;2023-09-30T01:18:50;5.97;;;4.10;;
9034;SDS011;4552;43.422;24.592;2023-09-30T01:21:18;4.43;;;3.50;;
9034;SDS011;4552;43.422;24.592;2023-09-30T01:43:58;6.60;;;4.10;;
9034;SDS011;4552;43.422;24.592;2023-09-30T01:46:25;5.30;;;3.80;;
9034;SDS011;4552;43.422;24.592;2023-09-30T01:48:52;5.43;;;3.80;;
9034;SDS011;4552;43.422;24.592;2023-09-30T01:51:19;4.77;;;3.87;;
9034;SDS011;4552;43.422;24.592;2023-09-30T01:53:47;4.17;;;3.77;;
9034;SDS011;4552;43.422;24.592;2023-09-30T01:56:13;5.67;;;4.53;;
9034;SDS011;4552;43.422;24.592;2023-09-30T01:58:41;5.17;;;3.53;;
9034;SDS011;4552;43.422;24.592;2023-09-30T02:01:09;6.10;;;3.77;;
9034;SDS011;4552;43.422;24.592;2023-09-30T02:03:36;5.90;;;4.20;;
9034;SDS011;4552;43.422;24.592;2023-09-30T02:06:03;5.87;;;4.17;;
9034;SDS011;4552;43.422;24.592;2023-09-30T02:15:14;6.57;;;4.05;;
9034;SDS011;4552;43.422;24.592;2023-09-30T02:17:43;6.07;;;3.93;;
9034;SDS011;4552;43.422;24.592;2023-09-30T02:20:11;4.83;;;3.67;;
9034;SDS011;4552;43.422;24.592;2023-09-30T02:22:43;4.53;;;3.53;;
9034;SDS011;4552;43.422;24.592;2023-09-30T02:28:34;5.53;;;3.83;;
9034;SDS011;4552;43.422;24.592;2023-09-30T02:31:01;6.30;;;4.03;;
9034;SDS011;4552;43.422;24.592;2023-09-30T02:33:30;6.30;;;3.83;;
9034;SDS011;4552;43.422;24.592;2023-09-30T02:35:57;5.53;;;4.10;;
9034;SDS011;4552;43.422;24.592;2023-09-30T03:15:25;4.73;;;3.90;;
9034;SDS011;4552;43.422;24.592;2023-09-30T03:17:52;5.50;;;4.10;;
9034;SDS011;4552;43.422;24.592;2023-09-30T03:20:20;7.20;;;4.00;;
9034;SDS011;4552;43.422;24.592;2023-09-30T03:22:50;7.50;;;4.43;;
9034;SDS011;4552;43.422;24.592;2023-09-30T03:28:39;5.03;;;3.63;;
9034;SDS011;4552;43.422;24.592;2023-09-30T03:31:07;4.40;;;3.47;;
9034;SDS011;4552;43.422;24.592;2023-09-30T03:33:36;6.23;;;3.37;;
9034;SDS011;4552;43.422;24.592;2023-09-30T03:36:04;12.07;;;7.00;;
9034;SDS011;4552;43.422;24.592;2023-09-30T03:45:11;5.53;;;3.93;;
9034;SDS011;4552;43.422;24.592;2023-09-30T03:47:40;7.23;;;3.73;;
9034;SDS011;4552;43.422;24.592;2023-09-30T03:50:09;6.33;;;3.80;;
9034;SDS011;4552;43.422;24.592;2023-09-30T03:52:39;4.67;;;3.33;;
9034;SDS011;4552;43.422;24.592;2023-09-30T04:05:15;6.30;;;3.90;;
9034;SDS011;4552;43.422;24.592;2023-09-30T04:07:43;5.50;;;3.70;;
9034;SDS011;4552;43.422;24.592;2023-09-30T04:10:11;8.40;;;4.00;;
9034;SDS011;4552;43.422;24.592;2023-09-30T04:12:38;5.60;;;3.70;;
9034;SDS011;4552;43.422;24.592;2023-09-30T04:15:06;5.27;;;4.03;;
9034;SDS011;4552;43.422;24.592;2023-09-30T04:17:37;4.30;;;3.27;;
9034;SDS011;4552;43.422;24.592;2023-09-30T04:20:04;6.20;;;3.43;;
9034;SDS011;4552;43.422;24.592;2023-09-30T04:22:36;6.17;;;3.80;;
9034;SDS011;4552;43.422;24.592;2023-09-30T04:25:04;5.87;;;3.53;;
9034;SDS011;4552;43.422;24.592;2023-09-30T04:27:34;4.90;;;3.87;;
9034;SDS011;4552;43.422;24.592;2023-09-30T04:30:02;6.27;;;3.70;;
9034;SDS011;4552;43.422;24.592;2023-09-30T04:32:34;7.60;;;4.00;;
9034;SDS011;4552;43.422;24.592;2023-09-30T04:35:02;4.73;;;3.63;;
9034;SDS011;4552;43.422;24.592;2023-09-30T04:37:29;5.23;;;3.77;;
9034;SDS011;4552;43.422;24.592;2023-09-30T04:39:57;5.87;;;3.93;;
9034;SDS011;4552;43.422;24.592;2023-09-30T04:42:25;4.67;;;3.90;;
9034;SDS011;4552;43.422;24.592;2023-09-30T04:44:52;4.20;;;3.63;;
9034;SDS011;4552;43.422;24.592;2023-09-30T04:47:21;7.83;;;4.33;;
9034;SDS011;4552;43.422;24.592;2023-09-30T04:49:49;4.17;;;3.60;;
9034;SDS011;4552;43.422;24.592;2023-09-30T04:52:16;7.67;;;4.37;;
9034;SDS011;4552;43.422;24.592;2023-09-30T05:01:28;6.40;;;3.90;;
9034;SDS011;4552;43.422;24.592;2023-09-30T05:03:55;4.57;;;3.37;;
9034;SDS011;4552;43.422;24.592;2023-09-30T05:06:23;7.07;;;4.23;;
9034;SDS011;4552;43.422;24.592;2023-09-30T05:18:48;5.90;;;4.00;;
9034;SDS011;4552;43.422;24.592;2023-09-30T05:21:15;5.20;;;3.90;;
9034;SDS011;4552;43.422;24.592;2023-09-30T05:23:42;6.53;;;4.10;;
9034;SDS011;4552;43.422;24.592;2023-09-30T05:26:09;9.57;;;6.00;;
9034;SDS011;4552;43.422;24.592;2023-09-30T05:28:36;8.63;;;5.33;;
9034;SDS011;4552;43.422;24.592;2023-09-30T05:31:04;5.40;;;4.30;;
9034;SDS011;4552;43.422;24.592;2023-09-30T05:33:32;7.20;;;4.77;;
9034;SDS011;4552;43.422;24.592;2023-09-30T05:36:02;4.93;;;3.90;;
9034;SDS011;4552;43.422;24.592;2023-09-30T05:38:30;8.13;;;4.80;;
9034;SDS011;4552;43.422;24.592;2023-09-30T05:47:52;7.90;;;4.67;;
9034;SDS011;4552;43.422;24.592;2023-09-30T05:50:21;7.77;;;5.07;;
9034;SDS011;4552;43.422;24.592;2023-09-30T05:52:55;9.57;;;4.77;;
9034;SDS011;4552;43.422;24.592;2023-09-30T06:02:06;8.20;;;4.83;;
9034;SDS011;4552;43.422;24.592;2023-09-30T06:04:32;18.23;;;12.77;;
9034;SDS011;4552;43.422;24.592;2023-09-30T06:07:00;10.97;;;6.93;;
9034;SDS011;4552;43.422;24.592;2023-09-30T06:16:12;56.03;;;35.93;;
9034;SDS011;4552;43.422;24.592;2023-09-30T06:18:39;31.30;;;20.77;;
9034;SDS011;4552;43.422;24.592;2023-09-30T06:21:06;13.83;;;9.40;;
9034;SDS011;4552;43.422;24.592;2023-09-30T06:23:35;12.27;;;9.03;;
9034;SDS011;4552;43.422;24.592;2023-09-30T07:03:03;10.03;;;4.53;;
9034;SDS011;4552;43.422;24.592;2023-09-30T07:05:31;6.33;;;4.10;;
9034;SDS011;4552;43.422;24.592;2023-09-30T07:07:58;8.57;;;4.37;;
9034;SDS011;4552;43.422;24.592;2023-09-30T08:00:53;5.63;;;4.17;;
9034;SDS011;4552;43.422;24.592;2023-09-30T08:03:20;7.53;;;4.00;;
9034;SDS011;4552;43.422;24.592;2023-09-30T08:05:47;8.20;;;6.43;;
9034;SDS011;4552;43.422;24.592;2023-09-30T08:08:15;6.93;;;3.63;;
9034;SDS011;4552;43.422;24.592;2023-09-30T09:48:15;12.67;;;11.67;;
9034;SDS011;4552;43.422;24.592;2023-09-30T09:50:44;7.10;;;4.50;;
9034;SDS011;4552;43.422;24.592;2023-09-30T09:53:12;6.53;;;4.53;;
9034;SDS011;4552;43.422;24.592;2023-09-30T10:29:19;13.70;;;12.60;;
9034;SDS011;4552;43.422;24.592;2023-09-30T10:31:55;15.20;;;13.97;;
9034;SDS011;4552;43.422;24.592;2023-09-30T10:34:40;31.97;;;28.40;;
9034;SDS011;4552;43.422;24.592;2023-09-30T10:37:21;16.70;;;15.30;;
9034;SDS011;4552;43.422;24.592;2023-09-30T10:46:36;16.67;;;15.47;;
9034;SDS011;4552;43.422;24.592;2023-09-30T10:49:15;18.90;;;14.00;;
9034;SDS011;4552;43.422;24.592;2023-09-30T10:51:59;14.97;;;13.80;;
9034;SDS011;4552;43.422;24.592;2023-09-30T11:07:54;17.40;;;15.70;;
9034;SDS011;4552;43.422;24.592;2023-09-30T11:10:25;4.40;;;4.00;;
9034;SDS011;4552;43.422;24.592;2023-09-30T11:12:53;6.93;;;4.40;;
9034;SDS011;4552;43.422;24.592;2023-09-30T11:15:21;5.90;;;4.20;;
9034;SDS011;4552;43.422;24.592;2023-09-30T11:17:49;4.70;;;4.30;;
9034;SDS011;4552;43.422;24.592;2023-09-30T11:20:16;5.50;;;4.73;;
9034;SDS011;4552;43.422;24.592;2023-09-30T11:22:43;4.63;;;4.23;;
9034;SDS011;4552;43.422;24.592;2023-09-30T15:30:51;6.17;;;3.03;;
9034;SDS011;4552;43.422;24.592;2023-09-30T15:33:18;5.63;;;3.17;;
9034;SDS011;4552;43.422;24.592;2023-09-30T15:35:45;8.27;;;5.10;;
9034;SDS011;4552;43.422;24.592;2023-09-30T15:38:12;5.47;;;3.23;;
9034;SDS011;4552;43.422;24.592;2023-09-30T15:43:17;7.07;;;4.73;;
9034;SDS011;4552;43.422;24.592;2023-09-30T15:45:44;7.17;;;4.83;;
9034;SDS011;4552;43.422;24.592;2023-09-30T15:48:14;7.70;;;4.40;;
9034;SDS011;4552;43.422;24.592;2023-09-30T15:50:41;8.97;;;4.47;;
9034;SDS011;4552;43.422;24.592;2023-09-30T15:53:08;7.67;;;4.27;;
9034;SDS011;4552;43.422;24.592;2023-09-30T15:55:35;6.77;;;4.20;;
9034;SDS011;4552;43.422;24.592;2023-09-30T15:58:03;6.87;;;4.20;;
9034;SDS011;4552;43.422;24.592;2023-09-30T16:00:30;5.33;;;3.67;;
9034;SDS011;4552;43.422;24.592;2023-09-30T16:03:01;4.30;;;3.63;;
9034;SDS011;4552;43.422;24.592;2023-09-30T16:05:32;11.30;;;9.80;;
9034;SDS011;4552;43.422;24.592;2023-09-30T16:08:01;20.10;;;18.30;;
9034;SDS011;4552;43.422;24.592;2023-09-30T16:10:28;53.13;;;44.67;;
9034;SDS011;4552;43.422;24.592;2023-09-30T16:12:56;22.20;;;20.10;;
9034;SDS011;4552;43.422;24.592;2023-09-30T16:15:23;18.03;;;16.57;;
9034;SDS011;4552;43.422;24.592;2023-09-30T16:17:51;22.77;;;16.47;;
9034;SDS011;4552;43.422;24.592;2023-09-30T16:20:18;16.08;;;12.57;;
9034;SDS011;4552;43.422;24.592;2023-09-30T16:22:50;7.13;;;5.90;;
9034;SDS011;4552;43.422;24.592;2023-09-30T16:25:17;7.30;;;5.73;;
9034;SDS011;4552;43.422;24.592;2023-09-30T16:27:44;12.20;;;6.60;;
9034;SDS011;4552;43.422;24.592;2023-09-30T16:30:11;8.00;;;5.73;;
9034;SDS011;4552;43.422;24.592;2023-09-30T17:17:59;9.33;;;6.73;;
9034;SDS011;4552;43.422;24.592;2023-09-30T17:20:28;10.57;;;6.80;;
9034;SDS011;4552;43.422;24.592;2023-09-30T17:22:55;8.53;;;6.63;;
9034;SDS011;4552;43.422;24.592;2023-09-30T17:25:22;6.53;;;5.93;;
9034;SDS011;4552;43.422;24.592;2023-09-30T17:27:51;7.80;;;6.20;;
9034;SDS011;4552;43.422;24.592;2023-09-30T17:30:18;11.60;;;6.73;;
9034;SDS011;4552;43.422;24.592;2023-09-30T17:32:45;22.60;;;20.20;;
9034;SDS011;4552;43.422;24.592;2023-09-30T17:35:13;22.17;;;19.87;;
9034;SDS011;4552;43.422;24.592;2023-09-30T17:37:42;21.20;;;19.40;;
9034;SDS011;4552;43.422;24.592;2023-09-30T17:40:10;21.30;;;19.10;;
9034;SDS011;4552;43.422;24.592;2023-09-30T17:42:37;19.07;;;17.27;;
9034;SDS011;4552;43.422;24.592;2023-09-30T17:45:05;18.33;;;16.60;;
9034;SDS011;4552;43.422;24.592;2023-09-30T17:47:35;20.83;;;18.80;;
9034;SDS011;4552;43.422;24.592;2023-09-30T17:50:02;21.37;;;19.37;;
9034;SDS011;4552;43.422;24.592;2023-09-30T17:52:31;19.43;;;17.77;;
9034;SDS011;4552;43.422;24.592;2023-09-30T18:18:33;8.93;;;7.47;;
9034;SDS011;4552;43.422;24.592;2023-09-30T18:21:01;15.03;;;9.70;;
9034;SDS011;4552;43.422;24.592;2023-09-30T18:23:28;15.63;;;10.93;;
9034;SDS011;4552;43.422;24.592;2023-09-30T18:25:55;18.13;;;8.60;;
9034;SDS011;4552;43.422;24.592;2023-09-30T18:28:22;20.40;;;11.37;;
9034;SDS011;4552;43.422;24.592;2023-09-30T18:30:53;24.38;;;21.85;;
9034;SDS011;4552;43.422;24.592;2023-09-30T18:33:23;27.50;;;22.13;;
9034;SDS011;4552;43.422;24.592;2023-09-30T18:35:56;21.40;;;19.37;;
9034;SDS011;4552;43.422;24.592;2023-09-30T18:38:24;20.87;;;18.80;;
9034;SDS011;4552;43.422;24.592;2023-09-30T20:48:05;4.97;;;3.70;;
9034;SDS011;4552;43.422;24.592;2023-09-30T21:00:06;8.77;;;3.57;;
9034;SDS011;4552;43.422;24.592;2023-09-30T21:05:47;7.07;;;4.20;;
9034;SDS011;4552;43.422;24.592;2023-09-30T21:11:08;5.83;;;4.37;;
9034;SDS011;4552;43.422;24.592;2023-09-30T21:13:46;7.77;;;4.00;;
9034;SDS011;4552;43.422;24.592;2023-09-30T21:16:40;7.47;;;3.90;;
9034;SDS011;4552;43.422;24.592;2023-09-30T21:28:00;5.20;;;3.77;;
9034;SDS011;4552;43.422;24.592;2023-09-30T21:30:44;8.90;;;4.87;;
9034;SDS011;4552;43.422;24.592;2023-09-30T21:33:14;5.83;;;4.13;;
9034;SDS011;4552;43.422;24.592;2023-09-30T21:35:57;6.63;;;4.10;;
9034;SDS011;4552;43.422;24.592;2023-09-30T23:22:57;4.27;;;3.00;;
9034;SDS011;4552;43.422;24.592;2023-09-30T23:25:25;3.13;;;2.83;;
9034;SDS011;4552;43.422;24.592;2023-09-30T23:27:53;2.93;;;2.60;;
9034;SDS011;4552;43.422;24.592;2023-09-30T23:30:20;4.70;;;3.30;;
9034;SDS011;4552;43.422;24.592;2023-09-30T23:32:49;4.57;;;3.00;;
9034;SDS011;4552;43.422;24.592;2023-09-30T23:35:18;4.07;;;2.60;;
9034;SDS011;4552;43.422;24.592;2023-09-30T23:37:50;3.57;;;2.73;;
9034;SDS011;4552;43.422;24.592;2023-09-30T23:40:20;6.03;;;3.10;;
9034;SDS011;4552;43.422;24.592;2023-09-30T23:42:48;3.90;;;3.00;;
9034;SDS011;4552;43.422;24.592;2023-09-30T23:45:18;3.17;;;2.63;;
9034;SDS011;4552;43.422;24.592;2023-09-30T23:47:46;3.73;;;2.87;;
9034;SDS011;4552;43.422;24.592;2023-09-30T23:50:14;3.30;;;2.97;;
9034;SDS011;4552;43.422;24.592;2023-09-30T23:52:42;7.20;;;3.50;;
9034;SDS011;4552;43.422;24.592;2023-09-30T23:55:09;3.60;;;2.90;;
